Time;durP1;ratioP1;P1;durP2;ratioP2;P2;SDS_P1;SDS_P2;PMS_P1;PMS_P2;Temp;Humidity;BMP_temperature;BMP_pressure;BME280_temperature;BME280_humidity;BME280_pressure;Samples;Min_cycle;Max_cycle;Signal;HPM_P1;HPM_P2
2022/07/21 00:24:39;;;;;;;4.63;1.60;;;21.50;98.60;;;;;;6315146;22;20019;-96
2022/07/21 00:27:04;;;;;;;5.07;1.60;;;21.40;98.70;;;;;;6260934;22;20019;-96
2022/07/21 02:52:17;;;;;;;7.88;3.97;;;20.50;99.90;;;;;;6309622;22;21090;-93
2022/07/21 02:54:43;;;;;;;7.95;4.32;;;20.50;99.90;;;;;;6287668;22;20496;-93
2022/07/21 02:57:08;;;;;;;8.52;3.97;;;20.50;99.90;;;;;;6287804;22;20019;-92
2022/07/21 02:59:34;;;;;;;8.75;4.38;;;20.50;99.90;;;;;;6287701;22;20463;-92
2022/07/21 03:02:00;;;;;;;8.13;5.07;;;20.50;99.90;;;;;;6287696;22;20022;-91
2022/07/21 03:04:26;;;;;;;6.70;4.07;;;20.50;99.90;;;;;;6287613;22;20015;-93
2022/07/21 03:06:51;;;;;;;7.63;4.15;;;20.50;99.90;;;;;;6287608;22;20068;-92
2022/07/21 03:09:17;;;;;;;8.38;4.40;;;20.60;99.90;;;;;;6287454;22;20084;-91
2022/07/21 03:11:43;;;;;;;8.27;4.55;;;20.60;99.90;;;;;;6287346;22;20022;-92
2022/07/21 03:14:08;;;;;;;10.95;4.47;;;20.60;99.90;;;;;;6287743;22;20100;-91
2022/07/21 03:16:34;;;;;;;7.95;4.35;;;20.60;99.90;;;;;;6287563;22;20097;-91
2022/07/21 03:24:21;;;;;;;8.15;3.92;;;20.60;99.90;;;;;;6358278;22;20019;-92
2022/07/21 03:27:10;;;;;;;7.60;4.30;;;20.60;99.90;;;;;;6296648;22;20444;-92
2022/07/21 03:29:39;;;;;;;9.82;4.68;;;20.60;99.90;;;;;;6287320;22;20062;-92
2022/07/21 03:35:59;;;;;;;;;;;;;;;;;;;;;
2022/07/21 03:38:41;;;;;;;6.88;4.15;;;20.60;99.90;;;;;;6313130;22;20015;-92
2022/07/21 03:41:09;;;;;;;8.60;4.75;;;20.60;99.90;;;;;;6287051;22;20339;-93
2022/07/21 03:43:47;;;;;;;;;;;;;;;;;;;;;
2022/07/21 03:46:16;;;;;;;7.72;4.50;;;20.60;99.90;;;;;;6312731;22;20006;-92
2022/07/21 03:48:42;;;;;;;9.32;4.95;;;20.60;99.90;;;;;;6287203;22;20019;-94
2022/07/21 04:06:40;;;;;;;8.00;4.00;;;20.60;99.90;;;;;;6320439;22;20019;-92
2022/07/21 04:09:06;;;;;;;8.38;4.70;;;20.60;99.90;;;;;;6267758;22;20054;-91
2022/07/21 04:11:32;;;;;;;8.15;4.35;;;20.60;99.90;;;;;;6256126;22;20057;-93
2022/07/21 04:13:58;;;;;;;10.02;4.80;;;20.60;99.90;;;;;;6256260;22;20047;-91
2022/07/21 04:16:24;;;;;;;;;;;20.60;99.90;;;;;;6256466;22;20010;-91
2022/07/21 04:18:49;;;;;;;7.22;4.10;;;20.60;99.90;;;;;;6256325;22;20000;-91
2022/07/21 04:21:15;;;;;;;8.40;4.68;;;20.60;99.90;;;;;;6256161;22;20077;-91
2022/07/21 04:23:41;;;;;;;9.70;4.53;;;20.60;99.90;;;;;;6256196;22;20083;-90
2022/07/21 04:26:07;;;;;;;10.25;4.45;;;20.60;99.90;;;;;;6255781;22;20016;-91
2022/07/21 04:28:32;;;;;;;9.85;5.25;;;20.60;99.90;;;;;;6256231;22;20034;-92
2022/07/21 04:30:58;;;;;;;9.55;4.72;;;20.50;99.90;;;;;;6256046;22;20470;-94
2022/07/21 04:33:24;;;;;;;7.95;4.78;;;20.50;99.90;;;;;;6256111;22;20026;-91
2022/07/21 04:35:50;;;;;;;9.07;4.80;;;20.50;99.90;;;;;;6256108;22;20008;-92
2022/07/21 04:38:19;;;;;;;10.10;5.25;;;20.50;99.90;;;;;;6255778;22;20135;-92
2022/07/21 04:40:44;;;;;;;8.88;5.50;;;20.50;99.90;;;;;;6255974;22;20094;-92
2022/07/21 04:43:10;;;;;;;8.90;5.20;;;20.50;99.90;;;;;;6256646;22;20120;-91
2022/07/21 04:45:53;;;;;;;;;;;;;;;;;;;;;
2022/07/21 04:48:22;;;;;;;8.98;5.50;;;20.50;99.90;;;;;;6281506;22;20019;-93
2022/07/21 04:50:48;;;;;;;8.48;5.10;;;20.50;99.90;;;;;;6258360;22;20011;-92
2022/07/21 04:53:13;;;;;;;10.95;6.28;;;20.50;99.90;;;;;;6256436;22;20057;-91
2022/07/21 04:55:51;;;;;;;;;;;;;;;;;;;;;
2022/07/21 04:58:36;;;;;;;;;;;;;;;;;;;;;
2022/07/21 05:01:05;;;;;;;11.50;6.00;;;20.50;99.90;;;;;;6281327;22;20015;-92
2022/07/21 05:03:36;;;;;;;10.80;6.07;;;20.50;99.90;;;;;;6256394;22;20393;-92
2022/07/21 05:06:01;;;;;;;12.05;6.10;;;20.50;99.90;;;;;;6255692;22;20015;-92
2022/07/21 05:08:27;;;;;;;9.98;6.00;;;20.50;99.90;;;;;;6255665;22;20023;-91
2022/07/21 05:16:04;;;;;;;11.82;6.40;;;20.50;99.90;;;;;;6277192;22;20467;-91
2022/07/21 05:18:30;;;;;;;;;;;20.60;99.90;;;;;;6225935;22;20460;-92
2022/07/21 05:20:56;;;;;;;12.40;7.30;;;20.60;99.90;;;;;;6225327;22;19915;-92
2022/07/21 05:23:21;;;;;;;14.32;7.55;;;20.60;99.90;;;;;;6225411;22;20023;-91
2022/07/21 05:25:47;;;;;;;11.65;6.53;;;20.60;99.90;;;;;;6225398;22;20016;-92
2022/07/21 05:28:13;;;;;;;11.85;6.97;;;20.60;99.90;;;;;;6225782;22;20098;-92
2022/07/21 05:30:38;;;;;;;13.63;7.75;;;20.70;99.90;;;;;;6225250;22;20016;-92
2022/07/21 05:33:04;;;;;;;12.30;7.28;;;20.80;99.90;;;;;;6225388;22;20019;-91
2022/07/21 05:35:30;;;;;;;12.88;7.00;;;20.80;99.90;;;;;;6250462;22;20018;-93
2022/07/21 05:37:56;;;;;;;13.65;7.53;;;20.90;99.90;;;;;;6225197;22;20026;-92
2022/07/21 05:40:29;;;;;;;13.02;6.88;;;20.80;99.90;;;;;;6225238;22;20011;-94
2022/07/21 06:29:37;;;;;;;13.13;7.43;;;20.60;99.90;;;;;;6308965;22;20023;-91
2022/07/21 06:32:03;;;;;;;12.30;7.85;;;20.60;99.90;;;;;;6257122;22;20050;-91
2022/07/21 06:34:28;;;;;;;14.40;7.80;;;20.60;99.90;;;;;;6256923;22;20450;-90
2022/07/21 06:36:54;;;;;;;11.65;7.32;;;20.70;99.90;;;;;;6256775;22;20027;-93
2022/07/21 06:39:20;;;;;;;12.80;7.60;;;20.70;99.90;;;;;;6257270;22;20015;-91
2022/07/21 06:41:45;;;;;;;12.93;7.18;;;20.70;99.90;;;;;;6257139;22;20016;-92
2022/07/21 06:44:11;;;;;;;11.73;7.43;;;20.70;99.90;;;;;;6256762;22;20103;-90
2022/07/21 06:46:37;;;;;;;12.90;7.90;;;20.70;99.90;;;;;;6257082;22;20026;-91
2022/07/21 06:49:03;;;;;;;14.23;9.38;;;20.80;99.90;;;;;;6257067;22;20018;-91
2022/07/21 06:51:29;;;;;;;11.35;6.78;;;20.70;99.90;;;;;;6257220;22;20098;-92
2022/07/21 06:53:55;;;;;;;12.52;7.35;;;20.70;99.90;;;;;;6257182;22;20023;-92
2022/07/21 06:56:20;;;;;;;11.73;7.10;;;20.70;99.90;;;;;;6257079;22;20037;-90
2022/07/21 06:58:46;;;;;;;11.27;7.05;;;20.70;99.90;;;;;;6257164;22;20015;-93
2022/07/21 07:01:38;;;;;;;13.43;8.05;;;20.70;99.90;;;;;;6257716;22;20029;-92
2022/07/21 07:04:04;;;;;;;13.07;7.70;;;20.70;99.90;;;;;;6256932;22;20471;-92
2022/07/21 07:06:30;;;;;;;13.52;7.78;;;20.60;99.90;;;;;;6258882;22;20011;-92
2022/07/21 07:08:55;;;;;;;13.93;8.32;;;20.60;99.90;;;;;;6271332;22;20153;-92
2022/07/21 07:11:21;;;;;;;13.63;7.82;;;20.60;99.90;;;;;;6279276;22;20045;-92
2022/07/21 07:13:47;;;;;;;12.35;7.40;;;20.60;99.90;;;;;;6271278;22;20019;-93
2022/07/21 07:16:13;;;;;;;12.85;7.90;;;20.50;99.90;;;;;;6257347;22;20019;-92
2022/07/21 07:18:39;;;;;;;13.50;8.02;;;20.50;99.90;;;;;;6256499;22;20045;-93
2022/07/21 07:21:05;;;;;;;13.02;8.35;;;20.50;99.90;;;;;;6256891;22;20023;-93
2022/07/21 07:23:33;;;;;;;15.00;7.53;;;20.50;99.90;;;;;;6256832;22;20007;-92
2022/07/21 07:26:01;;;;;;;11.98;7.43;;;20.60;99.90;;;;;;6256834;22;20015;-92
2022/07/21 07:28:27;;;;;;;13.05;7.50;;;20.50;99.90;;;;;;6256962;22;20069;-92
2022/07/21 07:30:53;;;;;;;11.93;7.90;;;20.60;99.90;;;;;;6256347;22;20015;-92
2022/07/21 07:33:20;;;;;;;12.80;8.02;;;20.60;99.90;;;;;;6256957;22;20464;-94
2022/07/21 07:35:45;;;;;;;14.13;8.32;;;20.60;99.90;;;;;;6256605;22;20012;-92
2022/07/21 07:38:15;;;;;;;13.38;8.50;;;20.50;99.90;;;;;;6257150;22;20037;-92
2022/07/21 07:40:40;;;;;;;12.18;8.10;;;20.50;99.90;;;;;;6256690;22;20011;-92
2022/07/21 07:43:07;;;;;;;15.25;9.15;;;20.50;99.90;;;;;;6256634;22;20065;-92
2022/07/21 07:48:08;;;;;;;15.15;9.40;;;20.50;99.90;;;;;;6340309;22;20015;-92
2022/07/21 07:50:34;;;;;;;13.13;8.48;;;20.50;99.90;;;;;;6288384;22;20328;-90
2022/07/21 07:53:00;;;;;;;17.05;9.63;;;20.40;99.90;;;;;;6307678;22;20333;-89
2022/07/21 07:55:25;;;;;;;13.40;8.45;;;20.40;99.90;;;;;;6300098;22;20018;-91
2022/07/21 07:57:51;;;;;;;13.48;8.10;;;20.40;99.90;;;;;;6288650;22;20011;-91
2022/07/21 08:00:19;;;;;;;14.23;8.98;;;20.30;99.90;;;;;;6287502;22;20007;-92
2022/07/21 08:10:25;;;;;;;13.30;8.80;;;20.20;99.90;;;;;;6340275;22;20026;-91
2022/07/21 08:12:50;;;;;;;14.00;9.38;;;20.20;99.90;;;;;;6287185;22;20023;-91
2022/07/21 08:18:53;;;;;;;14.52;8.50;;;20.20;99.90;;;;;;6300059;22;20022;-92
2022/07/21 08:21:18;;;;;;;15.00;9.65;;;20.20;99.90;;;;;;6287224;22;20046;-91
2022/07/21 08:23:44;;;;;;;13.75;8.90;;;20.20;99.90;;;;;;6287310;22;20011;-95
2022/07/21 08:26:10;;;;;;;14.43;9.13;;;20.30;99.90;;;;;;6286773;22;20407;-90
2022/07/21 08:28:35;;;;;;;14.48;9.13;;;20.30;99.90;;;;;;6286863;22;20010;-91
2022/07/21 08:31:01;;;;;;;15.18;9.50;;;20.30;99.90;;;;;;6286602;22;20069;-91
2022/07/21 08:33:27;;;;;;;16.58;9.88;;;20.30;99.90;;;;;;6287197;22;20408;-91
2022/07/21 08:35:53;;;;;;;16.13;9.63;;;20.40;99.90;;;;;;6289415;22;20022;-92
2022/07/21 08:38:20;;;;;;;15.63;9.40;;;20.40;99.90;;;;;;6294476;22;20093;-90
2022/07/21 08:41:09;;;;;;;14.13;9.20;;;20.40;99.90;;;;;;6312691;22;20482;-91
2022/07/21 08:43:35;;;;;;;14.77;9.85;;;20.40;99.90;;;;;;6264222;22;20019;-91
2022/07/21 08:46:01;;;;;;;;;;;20.40;99.90;;;;;;6287006;22;20313;-91
2022/07/21 08:48:29;;;;;;;15.18;9.80;;;20.40;99.90;;;;;;6286621;22;19921;-90
2022/07/21 08:50:56;;;;;;;14.48;8.52;;;20.50;99.90;;;;;;6286139;22;20026;-91
2022/07/21 08:53:23;;;;;;;13.68;7.85;;;20.50;99.90;;;;;;6286858;22;20021;-91
2022/07/21 08:55:48;;;;;;;15.18;9.30;;;20.60;99.90;;;;;;6286497;22;20046;-91
2022/07/21 08:58:14;;;;;;;16.48;9.32;;;20.60;99.90;;;;;;6286505;22;20026;-91
2022/07/21 09:06:01;;;;;;;14.27;8.60;;;20.60;99.90;;;;;;6339999;22;20019;-92
2022/07/21 09:08:46;;;;;;;14.75;8.38;;;20.70;99.90;;;;;;6286666;22;20018;-91
2022/07/21 09:11:58;;;;;;;14.05;8.90;;;20.70;99.90;;;;;;6286043;22;20068;-94
2022/07/21 09:14:28;;;;;;;18.02;9.63;;;20.70;99.90;;;;;;6287426;22;20018;-91
2022/07/21 09:20:53;;;;;;;15.50;8.63;;;20.80;99.90;;;;;;6248367;22;20021;-91
2022/07/21 09:23:21;;;;;;;16.40;9.35;;;20.90;99.90;;;;;;6286155;22;20545;-91
2022/07/21 09:25:49;;;;;;;14.95;9.35;;;20.90;99.90;;;;;;6286384;22;20015;-91
2022/07/21 09:28:18;;;;;;;15.85;8.70;;;20.90;99.90;;;;;;6286229;22;20061;-90
2022/07/21 09:30:49;;;;;;;15.27;9.68;;;21.00;99.90;;;;;;6286233;22;20019;-90
2022/07/21 09:33:37;;;;;;;14.15;8.52;;;21.00;99.90;;;;;;6285609;22;20098;-91
2022/07/21 09:36:08;;;;;;;14.63;9.10;;;21.00;99.90;;;;;;6286285;22;20098;-92
2022/07/21 09:38:50;;;;;;;17.65;8.75;;;21.10;99.90;;;;;;6286718;22;20011;-91
2022/07/21 09:41:20;;;;;;;14.85;9.57;;;21.10;99.90;;;;;;6286368;22;20144;-91
2022/07/21 09:43:56;;;;;;;16.13;9.95;;;21.20;99.90;;;;;;6286450;22;20034;-91
2022/07/21 09:46:30;;;;;;;16.50;9.65;;;21.20;99.90;;;;;;6287529;22;20015;-89
2022/07/21 09:49:00;;;;;;;18.23;10.15;;;21.30;99.90;;;;;;6286587;22;20072;-91
2022/07/21 09:51:27;;;;;;;17.17;9.85;;;21.40;99.90;;;;;;6285579;22;20014;-91
2022/07/21 09:54:04;;;;;;;16.88;10.07;;;21.50;99.90;;;;;;6286039;22;20317;-92
2022/07/21 10:19:08;;;;;;;19.48;11.13;;;21.60;99.90;;;;;;6309207;22;20031;-94
2022/07/21 10:25:17;;;;;;;18.92;11.68;;;21.70;99.90;;;;;;6266965;22;20134;-92
2022/07/21 10:28:13;;;;;;;16.70;10.25;;;21.80;99.90;;;;;;6257283;22;20444;-92
2022/07/21 10:30:46;;;;;;;18.38;10.65;;;21.80;99.90;;;;;;6257221;22;20019;-92
2022/07/21 10:33:40;;;;;;;20.10;11.90;;;21.90;99.90;;;;;;6283057;22;20015;-92
2022/07/21 10:36:07;;;;;;;17.48;10.85;;;21.90;99.90;;;;;;6257035;22;20022;-92
2022/07/21 10:38:45;;;;;;;19.17;11.25;;;21.90;99.90;;;;;;6257608;22;20521;-93
2022/07/21 10:41:42;;;;;;;20.13;12.25;;;21.90;99.90;;;;;;6285154;22;20475;-92
2022/07/21 10:54:31;;;;;;;17.83;10.90;;;22.10;99.90;;;;;;6278748;22;20460;-93
2022/07/21 10:57:24;;;;;;;19.10;11.40;;;22.10;99.90;;;;;;6226678;22;20464;-91
2022/07/21 11:00:27;;;;;;;22.70;12.07;;;22.10;99.90;;;;;;6226528;22;20078;-92
2022/07/21 11:03:23;;;;;;;20.20;11.77;;;22.20;99.90;;;;;;6225615;22;20066;-91
2022/07/21 11:06:22;;;;;;;19.92;12.07;;;22.20;99.90;;;;;;6227227;22;20047;-94
2022/07/21 11:09:04;;;;;;;16.13;10.00;;;22.20;99.90;;;;;;6170727;22;20020;-92
2022/07/21 11:11:33;;;;;;;16.23;9.32;;;22.20;99.90;;;;;;6226243;22;20457;-89
2022/07/21 11:14:33;;;;;;;18.25;10.50;;;22.30;99.90;;;;;;6226387;22;20103;-91
2022/07/21 11:17:52;;;;;;;17.52;10.50;;;22.30;99.90;;;;;;6222388;22;20397;-94
2022/07/21 11:23:59;;;;;;;17.92;10.40;;;22.30;99.90;;;;;;6274798;22;20027;-89
2022/07/21 11:26:26;;;;;;;17.55;10.57;;;22.30;99.90;;;;;;6225311;22;20015;-89
2022/07/21 11:29:05;;;;;;;16.08;9.85;;;22.40;99.90;;;;;;6222189;22;20015;-89
2022/07/21 11:31:31;;;;;;;11.88;7.85;;;22.50;99.90;;;;;;6224969;22;20023;-89
2022/07/21 11:33:57;;;;;;;13.90;8.25;;;22.70;99.90;;;;;;6225342;22;20460;-91
2022/07/21 11:36:47;;;;;;;11.18;6.13;;;22.80;99.90;;;;;;6226859;22;20153;-91
2022/07/21 11:39:15;;;;;;;11.65;6.35;;;23.00;99.90;;;;;;6226385;22;20019;-89
2022/07/21 11:42:04;;;;;;;12.45;7.13;;;23.20;99.90;;;;;;6226428;22;20055;-86
2022/07/21 11:44:30;;;;;;;18.08;10.15;;;23.30;99.90;;;;;;6226825;22;20023;-91
2022/07/21 11:46:58;;;;;;;14.90;9.35;;;23.40;99.90;;;;;;6226278;22;20345;-89
2022/07/21 11:49:24;;;;;;;15.77;9.23;;;23.60;99.90;;;;;;6226163;22;20020;-90
2022/07/21 11:51:55;;;;;;;14.68;8.88;;;23.60;99.90;;;;;;6228227;22;20030;-89
2022/07/21 11:54:33;;;;;;;14.80;8.85;;;23.60;99.90;;;;;;6255300;22;20023;-88
2022/07/21 12:02:12;;;;;;;13.90;8.85;;;23.50;99.90;;;;;;6294757;22;20031;-90
2022/07/21 12:04:45;;;;;;;14.13;7.28;;;23.60;99.90;;;;;;6230336;22;20044;-90
2022/07/21 12:07:34;;;;;;;11.52;7.22;;;23.70;99.90;;;;;;6278803;22;20047;-89
2022/07/21 12:10:05;;;;;;;12.82;7.28;;;23.90;99.90;;;;;;6229645;22;20054;-90
2022/07/21 12:12:38;;;;;;;12.20;6.85;;;24.00;99.90;;;;;;6254410;22;20007;-94
2022/07/21 12:15:20;;;;;;;8.38;5.50;;;24.10;99.90;;;;;;6252074;22;20042;-89
2022/07/21 12:17:49;;;;;;;7.97;4.25;;;24.20;99.90;;;;;;6228148;22;20022;-96
2022/07/21 12:20:46;;;;;;;7.05;4.60;;;24.20;99.90;;;;;;6252943;22;20027;-90
2022/07/21 12:23:23;;;;;;;8.27;5.45;;;24.10;99.90;;;;;;6252982;22;20019;-89
2022/07/21 12:25:49;;;;;;;9.65;5.47;;;24.10;99.90;;;;;;6250093;22;20077;-88
2022/07/21 13:51:43;;;;;;;6.00;3.17;;;24.30;99.90;;;;;;6304046;22;20051;-92
2022/07/21 13:54:23;;;;;;;6.35;3.00;;;24.50;99.90;;;;;;6311508;22;20019;-95
2022/07/21 13:57:16;;;;;;;4.80;2.55;;;24.60;99.90;;;;;;6285388;22;20018;-92
2022/07/21 13:59:43;;;;;;;6.10;2.60;;;24.50;99.90;;;;;;6285178;22;20068;-92
2022/07/21 14:02:25;;;;;;;3.50;2.00;;;24.40;99.90;;;;;;6285628;22;20361;-93
2022/07/21 14:04:58;;;;;;;4.75;1.95;;;24.30;99.90;;;;;;6283961;22;20050;-92
2022/07/21 14:07:43;;;;;;;4.40;2.28;;;24.30;99.90;;;;;;6285419;22;20019;-92
2022/07/21 14:11:06;;;;;;;;;;;;;;;;;;;;;
2022/07/21 14:13:27;;;;;;;5.30;2.28;;;24.30;99.90;;;;;;6154262;23;20161;-92
2022/07/21 14:28:50;;;;;;;4.68;2.00;;;24.30;99.90;;;;;;6305761;22;20027;-91
2022/07/21 14:31:15;;;;;;;;;;;24.20;99.90;;;;;;6254638;22;20019;-92
2022/07/21 14:33:43;;;;;;;3.83;2.03;;;24.20;99.90;;;;;;6252340;22;19915;-90
2022/07/21 14:36:12;;;;;;;3.42;1.50;;;24.30;99.90;;;;;;6254208;22;20348;-94
2022/07/21 14:38:43;;;;;;;4.10;2.10;;;24.40;99.90;;;;;;6254688;22;20409;-91
2022/07/21 14:41:29;;;;;;;4.93;2.20;;;24.40;99.90;;;;;;6284365;22;20065;-92
2022/07/21 14:44:03;;;;;;;3.42;1.90;;;24.20;99.90;;;;;;6285185;22;20022;-95
2022/07/21 14:46:50;;;;;;;4.05;1.95;;;24.10;99.90;;;;;;6286037;22;20015;-92
2022/07/21 14:49:16;;;;;;;4.32;1.80;;;24.00;99.90;;;;;;6312225;22;20015;-92
2022/07/21 14:51:42;;;;;;;;;;;24.00;99.90;;;;;;6285611;22;20046;-94
2022/07/21 14:54:07;;;;;;;5.28;1.98;;;23.90;99.90;;;;;;6286979;22;20316;-94
2022/07/21 14:56:33;;;;;;;;;;;23.90;99.90;;;;;;6287684;22;20011;-95
2022/07/21 14:58:59;;;;;;;3.70;1.98;;;23.90;99.90;;;;;;6287269;22;20457;-92
2022/07/21 15:01:25;;;;;;;;;;;23.80;99.90;;;;;;6287783;22;20011;-95
2022/07/21 15:03:51;;;;;;;3.83;1.60;;;23.60;99.90;;;;;;6312949;22;19954;-95
2022/07/21 15:06:17;;;;;;;4.85;2.50;;;23.50;99.90;;;;;;6312341;22;20033;-95
2022/07/21 15:08:43;;;;;;;;;;;23.30;99.90;;;;;;6286535;22;20037;-95
2022/07/21 15:11:08;;;;;;;5.88;2.30;;;23.10;99.90;;;;;;6287186;22;19993;-93
2022/07/21 15:13:37;;;;;;;;;;;22.90;99.90;;;;;;6287922;22;20018;-93
2022/07/21 15:16:03;;;;;;;4.97;2.10;;;22.70;99.90;;;;;;6287332;22;19918;-93
2022/07/21 15:18:28;;;;;;;;;;;22.60;99.90;;;;;;6287944;22;20372;-96
2022/07/21 15:20:54;;;;;;;4.65;2.40;;;22.40;99.90;;;;;;6286659;22;19918;-95
2022/07/21 17:10:19;;;;;;;5.13;1.80;;;20.20;99.90;;;;;;6326157;22;20027;-91
2022/07/21 17:13:05;;;;;;;5.10;1.60;;;20.00;99.90;;;;;;6275674;22;20295;-92
2022/07/21 23:32:35;;;;;;;2.92;1.30;;;17.10;99.90;;;;;;6276334;22;20024;-91
2022/07/21 23:35:05;;;;;;;2.67;1.08;;;17.10;99.90;;;;;;6246515;22;20019;-93
